Time;durP1;ratioP1;P1;durP2;ratioP2;P2;SDS_P1;SDS_P2;PMS_P1;PMS_P2;Temp;Humidity;BMP_temperature;BMP_pressure;BME280_temperature;BME280_humidity;BME280_pressure;Samples;Min_cycle;Max_cycle;Signal;HPM_P1;HPM_P2
2021/09/19 00:01:39;;;;;;;15.75;4.68;;;;;18.90;100546.00;;;;5068604;28;20044;-75
2021/09/19 00:04:09;;;;;;;15.50;14.10;;;;;18.90;100545.00;;;;5069857;28;20053;-75
2021/09/19 00:06:39;;;;;;;4.47;2.65;;;;;18.80;100555.00;;;;5069884;28;20041;-76
2021/09/19 00:09:08;;;;;;;6.18;3.47;;;;;18.80;100540.00;;;;5069625;28;20052;-75
2021/09/19 00:11:38;;;;;;;6.40;3.30;;;;;18.80;100563.00;;;;5070194;28;20514;-76
2021/09/19 00:14:07;;;;;;;8.82;3.45;;;;;18.80;100560.00;;;;5068774;28;20442;-78
2021/09/19 00:16:37;;;;;;;5.25;2.72;;;;;18.80;100569.00;;;;5066327;28;20063;-76
2021/09/19 00:19:06;;;;;;;6.50;4.13;;;;;18.70;100554.00;;;;5069088;28;20060;-77
2021/09/19 00:21:36;;;;;;;5.93;2.72;;;;;18.70;100548.00;;;;5069152;28;20613;-74
2021/09/19 00:24:06;;;;;;;8.25;3.25;;;;;18.80;100563.00;;;;5069446;28;20037;-78
2021/09/19 00:26:36;;;;;;;0.30;0.30;;;;;18.80;100570.00;;;;5069314;28;20056;-79
2021/09/19 00:29:05;;;;;;;1.10;0.40;;;;;18.80;100564.00;;;;5067886;28;20534;-75
2021/09/19 00:31:35;;;;;;;5.28;2.88;;;;;18.80;100564.00;;;;5069077;28;20404;-78
2021/09/19 00:34:04;;;;;;;3.25;1.65;;;;;18.80;100556.00;;;;5067427;28;20059;-75
2021/09/19 00:36:33;;;;;;;9.20;1.90;;;;;18.80;100553.00;;;;5067523;28;20044;-75
2021/09/19 00:39:03;;;;;;;2.65;1.33;;;;;18.80;100550.00;;;;5069235;28;20040;-75
2021/09/19 00:41:32;;;;;;;9.18;2.95;;;;;18.80;100556.00;;;;5068560;28;20055;-73
2021/09/19 00:44:06;;;;;;;8.07;3.72;;;;;18.80;100551.00;;;;5069256;28;20445;-77
2021/09/19 00:46:37;;;;;;;7.95;3.08;;;;;18.80;100565.00;;;;5068347;28;20086;-77
2021/09/19 00:49:07;;;;;;;5.37;2.20;;;;;18.80;100565.00;;;;5068598;28;20063;-77
2021/09/19 00:51:38;;;;;;;7.00;2.78;;;;;18.80;100550.00;;;;5068172;28;20115;-80
2021/09/19 00:54:10;;;;;;;11.27;3.45;;;;;18.80;100557.00;;;;5068289;28;20052;-76
2021/09/19 00:56:41;;;;;;;10.25;3.05;;;;;18.80;100542.00;;;;5065605;28;20044;-74
2021/09/19 00:59:11;;;;;;;5.20;2.95;;;;;18.70;100553.00;;;;5066797;28;20809;-79
2021/09/19 01:01:42;;;;;;;5.30;3.05;;;;;18.70;100554.00;;;;5066195;28;20043;-76
2021/09/19 01:04:13;;;;;;;5.10;3.78;;;;;18.60;100547.00;;;;5067016;28;20126;-78
2021/09/19 01:06:43;;;;;;;8.65;4.28;;;;;18.60;100538.00;;;;5068281;28;20090;-77
2021/09/19 01:09:13;;;;;;;122.60;73.90;;;;;18.60;100538.00;;;;5068191;28;20106;-79
2021/09/19 01:11:43;;;;;;;5.93;2.40;;;;;18.60;100537.00;;;;5067723;28;20051;-78
2021/09/19 01:14:16;;;;;;;14.00;8.05;;;;;18.60;100538.00;;;;5068984;28;20045;-72
2021/09/19 01:16:45;;;;;;;122.78;68.32;;;;;18.60;100557.00;;;;5069229;28;20473;-78
2021/09/19 01:19:17;;;;;;;0.38;0.38;;;;;18.50;100542.00;;;;5066370;28;20056;-77
2021/09/19 01:21:48;;;;;;;0.38;0.38;;;;;18.50;100559.00;;;;5068076;28;20377;-82
2021/09/19 01:24:19;;;;;;;0.85;0.55;;;;;18.50;100546.00;;;;5066002;28;20556;-75
2021/09/19 01:26:48;;;;;;;0.30;0.30;;;;;18.50;100553.00;;;;5067069;28;20088;-81
2021/09/19 01:29:18;;;;;;;47.42;9.18;;;;;18.50;100547.00;;;;5066049;28;20059;-76
2021/09/19 01:31:49;;;;;;;8.07;3.20;;;;;18.50;100565.00;;;;5067980;28;20049;-81
2021/09/19 01:34:18;;;;;;;67.65;61.45;;;;;18.50;100548.00;;;;5067916;28;20122;-80
2021/09/19 01:36:49;;;;;;;6.18;2.67;;;;;18.50;100566.00;;;;5067033;28;20048;-80
2021/09/19 01:39:19;;;;;;;112.32;99.22;;;;;18.40;100565.00;;;;5069031;28;20047;-75
2021/09/19 01:41:51;;;;;;;5.65;3.25;;;;;18.40;100557.00;;;;5068234;28;20052;-78
2021/09/19 01:44:21;;;;;;;10.70;7.25;;;;;18.40;100576.00;;;;5068077;28;20045;-80
2021/09/19 01:46:50;;;;;;;6.85;3.60;;;;;18.40;100571.00;;;;5067900;28;20049;-77
2021/09/19 01:49:19;;;;;;;25.25;23.58;;;;;18.40;100550.00;;;;5067555;28;20071;-77
2021/09/19 01:51:49;;;;;;;404.58;203.38;;;;;18.40;100552.00;;;;5066435;28;20477;-79
2021/09/19 01:54:19;;;;;;;5.10;3.28;;;;;18.40;100536.00;;;;5067321;28;20071;-83
2021/09/19 01:56:48;;;;;;;1.35;1.13;;;;;18.30;100558.00;;;;5067834;28;20049;-77
2021/09/19 01:59:17;;;;;;;85.57;45.20;;;;;18.30;100547.00;;;;5067687;28;20048;-79
2021/09/19 02:01:47;;;;;;;5.28;3.53;;;;;18.30;100527.00;;;;5067829;28;20047;-76
2021/09/19 02:04:17;;;;;;;5.22;3.33;;;;;18.30;100550.00;;;;5065932;28;20139;-78
2021/09/19 02:06:46;;;;;;;271.83;65.28;;;;;18.30;100543.00;;;;5068062;28;20049;-75
2021/09/19 02:09:15;;;;;;;3.83;1.80;;;;;18.30;100530.00;;;;5066867;28;20526;-79
2021/09/19 02:11:45;;;;;;;26.88;24.90;;;;;18.30;100532.00;;;;5066672;28;20052;-75
2021/09/19 02:14:14;;;;;;;15.63;12.82;;;;;18.30;100549.00;;;;5067122;28;20036;-80
2021/09/19 02:16:44;;;;;;;15.85;14.25;;;;;18.30;100536.00;;;;5067733;28;20056;-75
2021/09/19 02:19:14;;;;;;;2.83;1.02;;;;;18.20;100527.00;;;;5067436;28;20044;-75
2021/09/19 02:21:43;;;;;;;8.75;5.88;;;;;18.20;100533.00;;;;5067097;28;20740;-79
2021/09/19 02:24:13;;;;;;;462.60;202.00;;;;;18.20;100539.00;;;;5068056;28;20040;-78
2021/09/19 02:26:42;;;;;;;4.00;1.80;;;;;18.20;100519.00;;;;5067017;28;20157;-77
2021/09/19 02:29:12;;;;;;;1.65;1.02;;;;;18.20;100524.00;;;;5067244;28;20094;-80
2021/09/19 02:31:41;;;;;;;4.30;2.10;;;;;18.20;100542.00;;;;5067730;28;20049;-76
2021/09/19 02:34:11;;;;;;;8.57;3.22;;;;;18.20;100531.00;;;;5067074;28;20059;-78
2021/09/19 02:36:40;;;;;;;8.60;3.38;;;;;18.20;100527.00;;;;5067478;28;20040;-76
2021/09/19 02:39:10;;;;;;;190.75;74.57;;;;;18.20;100525.00;;;;5067085;28;20052;-75
2021/09/19 02:41:40;;;;;;;69.43;27.95;;;;;18.20;100518.00;;;;5067401;28;20051;-79
2021/09/19 02:44:09;;;;;;;212.68;102.93;;;;;18.20;100525.00;;;;5066765;28;20517;-78
2021/09/19 02:46:39;;;;;;;3.13;2.33;;;;;18.20;100520.00;;;;5067183;28;20047;-76
2021/09/19 02:49:08;;;;;;;3.25;1.45;;;;;18.20;100530.00;;;;5067132;28;20506;-77
2021/09/19 02:51:38;;;;;;;66.68;27.27;;;;;18.20;100519.00;;;;5066202;28;20541;-80
2021/09/19 02:54:07;;;;;;;803.65;172.95;;;;;18.20;100516.00;;;;5065354;28;20527;-79
2021/09/19 02:56:36;;;;;;;0.00;0.00;;;;;18.10;100515.00;;;;5066979;28;20105;-80
2021/09/19 02:59:06;;;;;;;2.28;1.70;;;;;18.10;100517.00;;;;5066724;28;20510;-81
2021/09/19 03:01:35;;;;;;;2.95;2.10;;;;;18.10;100520.00;;;;5066980;28;20051;-77
2021/09/19 03:04:05;;;;;;;2.47;1.52;;;;;18.10;100518.00;;;;5066075;28;20048;-77
2021/09/19 03:06:34;;;;;;;136.43;74.75;;;;;18.10;100517.00;;;;5066446;28;20513;-79
2021/09/19 03:09:03;;;;;;;3.47;3.17;;;;;18.10;100528.00;;;;5065062;28;20052;-76
2021/09/19 03:11:33;;;;;;;2.55;1.05;;;;;18.10;100513.00;;;;5066902;28;20094;-78
2021/09/19 03:14:03;;;;;;;35.90;32.40;;;;;18.10;100498.00;;;;5049336;28;20053;-78
2021/09/19 03:16:32;;;;;;;38.67;18.83;;;;;18.00;100515.00;;;;5066340;28;20041;-77
2021/09/19 03:19:02;;;;;;;86.25;26.70;;;;;18.00;100510.00;;;;5065186;28;20430;-77
2021/09/19 03:21:31;;;;;;;1.23;0.95;;;;;18.00;100503.00;;;;5065938;28;20051;-79
2021/09/19 03:24:01;;;;;;;3.10;0.90;;;;;18.10;100504.00;;;;5066436;28;20455;-79
2021/09/19 03:26:30;;;;;;;3.28;1.58;;;;;18.10;100474.00;;;;5065645;28;20056;-78
2021/09/19 03:28:59;;;;;;;6.65;2.13;;;;;18.10;100515.00;;;;5065871;28;20041;-78
2021/09/19 03:31:29;;;;;;;5.47;2.05;;;;;18.10;100492.00;;;;5064584;28;20102;-76
2021/09/19 03:33:58;;;;;;;5.43;2.00;;;;;18.10;100514.00;;;;5066308;28;20430;-81
2021/09/19 03:36:28;;;;;;;4.38;2.17;;;;;18.00;100520.00;;;;5066483;28;20055;-77
2021/09/19 03:38:57;;;;;;;9.50;2.50;;;;;18.00;100515.00;;;;5066384;28;20044;-78
2021/09/19 03:41:26;;;;;;;1999.90;999.90;;;;;18.00;100500.00;;;;5065882;28;20511;-81
2021/09/19 03:43:58;;;;;;;5.72;2.15;;;;;18.00;100504.00;;;;5066323;28;20056;-79
2021/09/19 03:46:28;;;;;;;5.53;2.03;;;;;18.00;100475.00;;;;5066149;28;20037;-77
2021/09/19 03:48:57;;;;;;;4.10;1.58;;;;;18.00;100473.00;;;;5066080;28;20469;-78
2021/09/19 03:51:26;;;;;;;1.88;1.83;;;;;17.90;100508.00;;;;5066372;28;20449;-80
2021/09/19 03:53:56;;;;;;;3.42;1.35;;;;;17.90;100502.00;;;;5065953;28;20090;-78
2021/09/19 03:56:25;;;;;;;3.10;1.60;;;;;17.90;100507.00;;;;5065463;28;20578;-78
2021/09/19 03:58:55;;;;;;;761.38;76.80;;;;;17.90;100494.00;;;;5066139;28;20518;-77
2021/09/19 04:01:24;;;;;;;89.68;8.07;;;;;17.90;100477.00;;;;5066277;28;20045;-79
2021/09/19 04:03:54;;;;;;;4.93;2.83;;;;;17.90;100466.00;;;;5065912;28;20109;-77
2021/09/19 04:06:23;;;;;;;11.43;10.77;;;;;17.90;100483.00;;;;5066012;28;20044;-77
2021/09/19 04:08:53;;;;;;;2.85;2.70;;;;;17.90;100479.00;;;;5065889;28;20056;-81
2021/09/19 04:11:22;;;;;;;2.78;1.80;;;;;17.90;100476.00;;;;5065716;28;20830;-77
2021/09/19 04:13:51;;;;;;;1448.60;364.45;;;;;17.80;100468.00;;;;5065665;28;20072;-78
2021/09/19 04:16:21;;;;;;;1999.90;999.90;;;;;17.80;100469.00;;;;5065998;28;20044;-80
2021/09/19 04:18:50;;;;;;;172.10;143.20;;;;;17.90;100476.00;;;;5065955;28;20048;-76
2021/09/19 04:21:20;;;;;;;0.28;0.28;;;;;17.90;100468.00;;;;5065071;28;20044;-79
2021/09/19 04:23:49;;;;;;;296.38;36.53;;;;;18.00;100494.00;;;;5066615;28;20036;-75
2021/09/19 04:26:18;;;;;;;63.85;57.97;;;;;17.90;100466.00;;;;5065772;28;20049;-78
2021/09/19 04:28:48;;;;;;;0.40;0.40;;;;;17.90;100474.00;;;;5064433;28;20060;-77
2021/09/19 04:31:17;;;;;;;38.05;10.13;;;;;17.90;100469.00;;;;5065316;28;20145;-78
2021/09/19 04:33:46;;;;;;;0.60;0.60;;;;;17.90;100454.00;;;;5065695;28;20060;-79
2021/09/19 04:36:16;;;;;;;4.93;4.50;;;;;17.80;100459.00;;;;5069942;28;20052;-76
2021/09/19 04:38:46;;;;;;;553.47;123.13;;;;;17.80;100466.00;;;;5069071;28;20044;-78
2021/09/19 04:41:15;;;;;;;2.15;1.25;;;;;17.80;100472.00;;;;5068204;28;20803;-79
2021/09/19 04:43:44;;;;;;;15.23;13.90;;;;;17.80;100450.00;;;;5069093;28;20410;-76
2021/09/19 04:46:14;;;;;;;4.60;4.18;;;;;17.80;100454.00;;;;5067511;28;20063;-74
2021/09/19 04:48:43;;;;;;;2.17;1.00;;;;;17.80;100461.00;;;;5070207;28;20120;-78
2021/09/19 04:51:13;;;;;;;2.53;1.00;;;;;17.70;100459.00;;;;5069491;28;20114;-81
2021/09/19 04:53:42;;;;;;;17.60;14.98;;;;;17.70;100457.00;;;;5069123;28;20106;-78
2021/09/19 04:56:12;;;;;;;1303.75;551.30;;;;;17.70;100466.00;;;;5068659;28;20403;-79
2021/09/19 04:58:41;;;;;;;125.57;19.33;;;;;17.70;100454.00;;;;5068712;28;20067;-75
2021/09/19 05:01:11;;;;;;;4.47;1.23;;;;;17.70;100438.00;;;;5069175;28;20110;-74
2021/09/19 05:03:40;;;;;;;5.28;1.00;;;;;17.70;100435.00;;;;5068795;28;20114;-75
2021/09/19 05:06:14;;;;;;;0.93;0.70;;;;;17.70;100435.00;;;;5068886;28;20045;-77
2021/09/19 05:08:44;;;;;;;1.23;0.93;;;;;17.70;100429.00;;;;5068850;28;20045;-75
2021/09/19 05:11:13;;;;;;;12.88;11.52;;;;;17.70;100432.00;;;;5067028;28;20051;-79
2021/09/19 05:13:43;;;;;;;7.93;7.18;;;;;17.70;100437.00;;;;5067887;28;20048;-77
2021/09/19 05:16:13;;;;;;;5.82;3.10;;;;;17.70;100438.00;;;;5068739;28;20048;-77
2021/09/19 05:18:42;;;;;;;9.98;9.05;;;;;17.70;100428.00;;;;5066572;28;20223;-78
2021/09/19 05:21:11;;;;;;;8.07;7.28;;;;;17.70;100436.00;;;;5068262;28;20040;-78
2021/09/19 05:23:41;;;;;;;4.82;1.38;;;;;17.70;100410.00;;;;5068148;28;20040;-77
2021/09/19 05:26:10;;;;;;;2.85;2.33;;;;;17.70;100414.00;;;;5066654;28;20347;-75
2021/09/19 05:28:40;;;;;;;1.42;0.63;;;;;17.60;100427.00;;;;5068553;28;20530;-80
2021/09/19 05:31:09;;;;;;;3.08;1.83;;;;;17.60;100405.00;;;;5067967;28;20503;-77
2021/09/19 05:33:40;;;;;;;3.92;1.98;;;;;17.60;100405.00;;;;5068696;28;20052;-77
2021/09/19 05:36:09;;;;;;;3.87;1.77;;;;;17.60;100396.00;;;;5068700;28;20052;-78
2021/09/19 05:38:39;;;;;;;6.45;2.45;;;;;17.60;100393.00;;;;5068713;28;20349;-78
2021/09/19 05:41:08;;;;;;;57.65;53.60;;;;;17.60;100401.00;;;;5068169;28;20074;-77
2021/09/19 05:43:38;;;;;;;2.80;1.75;;;;;17.60;100381.00;;;;5068185;28;20052;-81
2021/09/19 05:46:08;;;;;;;4.55;2.10;;;;;17.60;100400.00;;;;5067987;28;20045;-78
2021/09/19 05:48:38;;;;;;;4.07;3.47;;;;;17.60;100409.00;;;;5067708;28;20037;-77
2021/09/19 05:51:07;;;;;;;3.15;1.90;;;;;17.60;100395.00;;;;5067859;28;20048;-76
2021/09/19 05:53:38;;;;;;;5.00;1.23;;;;;17.60;100380.00;;;;5068323;28;20044;-78
2021/09/19 05:56:08;;;;;;;5.00;2.10;;;;;17.60;100383.00;;;;5068179;28;20475;-77
2021/09/19 05:58:37;;;;;;;8.57;2.08;;;;;17.60;100378.00;;;;5068493;28;20055;-75
2021/09/19 06:01:06;;;;;;;4.30;2.53;;;;;17.60;100378.00;;;;5067573;28;20122;-77
2021/09/19 06:03:38;;;;;;;139.52;58.58;;;;;17.60;100384.00;;;;5067774;28;20533;-77
2021/09/19 06:06:08;;;;;;;5.30;2.03;;;;;17.60;100370.00;;;;5068347;28;20123;-81
2021/09/19 06:08:38;;;;;;;6.80;4.18;;;;;17.60;100356.00;;;;5067791;28;20053;-82
2021/09/19 06:11:07;;;;;;;5.18;2.22;;;;;17.50;100371.00;;;;5067445;28;20055;-76
2021/09/19 06:13:37;;;;;;;177.13;51.17;;;;;17.50;100379.00;;;;5065531;28;20052;-80
2021/09/19 06:16:06;;;;;;;10.25;3.55;;;;;17.60;100368.00;;;;5065753;28;20102;-79
2021/09/19 06:18:35;;;;;;;6.70;2.22;;;;;17.60;100358.00;;;;5065977;28;20048;-78
2021/09/19 06:21:05;;;;;;;4.78;2.10;;;;;17.60;100354.00;;;;5067573;28;20037;-79
2021/09/19 06:23:36;;;;;;;2.08;1.02;;;;;17.60;100363.00;;;;5065505;28;20049;-79
2021/09/19 06:26:06;;;;;;;287.70;25.58;;;;;17.60;100353.00;;;;5066800;28;20087;-82
2021/09/19 06:28:36;;;;;;;7.07;6.35;;;;;17.60;100348.00;;;;5066502;28;20049;-81
2021/09/19 06:31:05;;;;;;;24.67;22.42;;;;;17.60;100346.00;;;;5066390;28;20099;-77
2021/09/19 06:33:35;;;;;;;145.30;65.65;;;;;17.60;100356.00;;;;5066902;28;20076;-80
2021/09/19 06:36:05;;;;;;;2.72;1.25;;;;;17.50;100359.00;;;;5066188;28;20052;-76
2021/09/19 06:38:35;;;;;;;7.60;3.22;;;;;17.50;100349.00;;;;5066911;28;20062;-78
2021/09/19 06:41:04;;;;;;;9.45;3.20;;;;;17.50;100357.00;;;;5067441;28;20797;-80
2021/09/19 06:43:34;;;;;;;8.93;3.08;;;;;17.60;100352.00;;;;5066240;28;20044;-80
2021/09/19 06:46:03;;;;;;;2.90;2.65;;;;;17.50;100345.00;;;;5067038;28;20040;-79
2021/09/19 06:48:32;;;;;;;5.47;5.07;;;;;17.50;100339.00;;;;5069419;28;20072;-79
2021/09/19 06:51:02;;;;;;;4.32;1.73;;;;;17.50;100361.00;;;;5072288;28;20044;-79
2021/09/19 06:53:33;;;;;;;3.00;1.25;;;;;17.50;100364.00;;;;5072596;28;20090;-79
2021/09/19 06:56:06;;;;;;;3.25;1.70;;;;;17.60;100350.00;;;;5072566;28;20048;-78
2021/09/19 06:58:36;;;;;;;1.45;1.30;;;;;17.60;100359.00;;;;5072220;28;20404;-76
2021/09/19 07:01:07;;;;;;;59.20;52.38;;;;;17.60;100363.00;;;;5068501;28;20430;-77
2021/09/19 07:03:38;;;;;;;192.88;72.75;;;;;17.50;100357.00;;;;5067080;28;20128;-80
2021/09/19 07:06:08;;;;;;;262.77;44.93;;;;;17.50;100375.00;;;;5068721;28;20045;-80
2021/09/19 07:08:37;;;;;;;2.92;1.80;;;;;17.60;100353.00;;;;5069294;28;20048;-77
2021/09/19 07:11:07;;;;;;;40.75;37.53;;;;;17.60;100371.00;;;;5068449;28;20044;-78
2021/09/19 07:13:36;;;;;;;3.92;1.95;;;;;17.50;100359.00;;;;5067563;28;20067;-77
2021/09/19 07:16:06;;;;;;;8.35;2.08;;;;;17.50;100358.00;;;;5067469;28;20063;-78
2021/09/19 07:18:35;;;;;;;9.85;3.13;;;;;17.50;100357.00;;;;5067251;28;20170;-77
2021/09/19 07:21:05;;;;;;;6.85;2.33;;;;;17.50;100368.00;;;;5066945;28;20036;-79
2021/09/19 07:23:34;;;;;;;4.30;1.65;;;;;17.50;100362.00;;;;5066223;28;20055;-76
2021/09/19 07:26:04;;;;;;;76.05;31.00;;;;;17.50;100375.00;;;;5066837;28;20074;-81
2021/09/19 07:28:35;;;;;;;13.65;12.38;;;;;17.50;100354.00;;;;5067092;28;20414;-78
2021/09/19 07:31:05;;;;;;;75.00;68.78;;;;;17.50;100373.00;;;;5064797;28;20057;-80
2021/09/19 07:33:34;;;;;;;1999.90;999.90;;;;;17.50;100383.00;;;;5066484;28;20048;-79
2021/09/19 07:36:04;;;;;;;27.85;20.65;;;;;17.50;100384.00;;;;5066957;28;20063;-76
2021/09/19 07:38:34;;;;;;;0.00;0.00;;;;;17.50;100379.00;;;;5066400;28;20055;-78
2021/09/19 07:41:03;;;;;;;14.95;14.10;;;;;17.50;100369.00;;;;5066437;28;20055;-77
2021/09/19 07:43:33;;;;;;;3.80;3.60;;;;;17.50;100361.00;;;;5066310;28;20045;-79
2021/09/19 07:46:03;;;;;;;0.00;0.00;;;;;17.50;100371.00;;;;5066583;28;20058;-78
2021/09/19 07:48:32;;;;;;;2.05;1.95;;;;;17.50;100390.00;;;;5066362;28;20048;-78
2021/09/19 07:51:02;;;;;;;4.63;4.32;;;;;17.40;100365.00;;;;5066229;28;20064;-78
2021/09/19 07:53:32;;;;;;;0.32;0.32;;;;;17.50;100367.00;;;;5067293;28;20048;-75
2021/09/19 07:56:01;;;;;;;0.75;0.75;;;;;17.50;100368.00;;;;5066637;28;20651;-77
2021/09/19 07:58:30;;;;;;;37.80;19.95;;;;;17.40;100372.00;;;;5066863;28;20040;-76
2021/09/19 08:01:00;;;;;;;106.80;96.45;;;;;17.40;100363.00;;;;5048667;28;20515;-78
2021/09/19 08:03:30;;;;;;;2.90;2.80;;;;;17.40;100394.00;;;;5066639;28;20044;-77
2021/09/19 08:05:59;;;;;;;2.05;1.85;;;;;17.40;100397.00;;;;5065995;28;20048;-77
2021/09/19 08:08:29;;;;;;;6.18;4.20;;;;;17.50;100396.00;;;;5065905;28;20522;-81
2021/09/19 08:10:59;;;;;;;10.30;4.13;;;;;17.50;100385.00;;;;5069906;28;20127;-79
2021/09/19 08:13:28;;;;;;;15.02;13.98;;;;;17.50;100384.00;;;;5069236;28;20075;-80
2021/09/19 08:15:57;;;;;;;3.88;1.50;;;;;17.40;100382.00;;;;5070205;28;20470;-78
2021/09/19 08:18:27;;;;;;;3.20;2.17;;;;;17.40;100412.00;;;;5067949;28;20135;-78
2021/09/19 08:20:56;;;;;;;5.25;2.75;;;;;17.40;100403.00;;;;5068995;28;20045;-76
2021/09/19 08:23:26;;;;;;;7.00;5.63;;;;;17.40;100419.00;;;;5069847;28;20078;-79
2021/09/19 08:25:56;;;;;;;2.10;1.58;;;;;17.40;100411.00;;;;5069720;28;20469;-81
2021/09/19 08:28:26;;;;;;;0.30;0.25;;;;;17.30;100424.00;;;;5069784;28;20499;-77
2021/09/19 08:30:56;;;;;;;324.48;63.50;;;;;17.30;100407.00;;;;5070223;28;20098;-76
2021/09/19 08:33:27;;;;;;;2.50;1.40;;;;;17.30;100401.00;;;;5069692;28;20120;-76
2021/09/19 08:35:59;;;;;;;205.07;143.50;;;;;17.30;100434.00;;;;5068704;28;20701;-79
2021/09/19 08:38:29;;;;;;;0.60;0.60;;;;;17.30;100436.00;;;;5069887;28;20044;-76
2021/09/19 08:40:58;;;;;;;4.55;3.97;;;;;17.30;100436.00;;;;5069643;28;20045;-76
2021/09/19 08:43:28;;;;;;;2.50;1.55;;;;;17.30;100426.00;;;;5070064;28;20117;-78
2021/09/19 08:45:58;;;;;;;6.43;3.92;;;;;17.30;100447.00;;;;5068493;28;20506;-77
2021/09/19 08:48:28;;;;;;;7.88;5.25;;;;;17.30;100438.00;;;;5069092;28;20048;-79
2021/09/19 08:50:58;;;;;;;7.75;4.22;;;;;17.30;100448.00;;;;5069451;28;20043;-77
2021/09/19 08:53:28;;;;;;;9.35;5.55;;;;;17.40;100439.00;;;;5068752;28;20612;-76
2021/09/19 08:56:01;;;;;;;12.07;4.68;;;;;17.40;100433.00;;;;5068988;28;20396;-80
2021/09/19 08:58:31;;;;;;;10.73;7.15;;;;;17.30;100461.00;;;;5068809;28;20048;-79
2021/09/19 09:01:02;;;;;;;6.25;5.57;;;;;17.30;100443.00;;;;5069120;28;20051;-79
2021/09/19 09:03:33;;;;;;;7.93;4.45;;;;;17.30;100469.00;;;;5069148;28;20487;-79
2021/09/19 09:06:06;;;;;;;8.55;5.85;;;;;17.30;100469.00;;;;5069176;28;20050;-77
2021/09/19 09:08:36;;;;;;;10.98;6.05;;;;;17.30;100467.00;;;;5068206;28;20036;-78
2021/09/19 09:11:06;;;;;;;6.07;4.40;;;;;17.30;100458.00;;;;5068496;28;20049;-76
2021/09/19 09:13:38;;;;;;;56.08;50.72;;;;;17.40;100464.00;;;;5068745;28;20079;-79
2021/09/19 09:16:13;;;;;;;7.57;3.88;;;;;17.40;100454.00;;;;5068403;28;20040;-76
2021/09/19 09:18:45;;;;;;;17.13;10.90;;;;;17.30;100459.00;;;;5068441;28;20048;-81
2021/09/19 09:21:20;;;;;;;12.38;6.75;;;;;17.40;100439.00;;;;5067848;28;20048;-78
2021/09/19 09:24:08;;;;;;;18.60;7.18;;;;;17.40;100442.00;;;;5069218;28;20456;-80
2021/09/19 09:26:38;;;;;;;9.27;7.38;;;;;17.40;100471.00;;;;5068708;28;20071;-80
2021/09/19 09:29:09;;;;;;;13.80;7.47;;;;;17.40;100469.00;;;;5068739;28;20055;-81
2021/09/19 09:31:41;;;;;;;58.45;17.08;;;;;17.40;100477.00;;;;5068081;28;20119;-77
2021/09/19 09:34:13;;;;;;;;;;;;;17.40;100477.00;;;;5067703;28;20041;-80
2021/09/19 09:36:50;;;;;;;8.23;5.82;;;;;17.40;100480.00;;;;5068555;28;19928;-77
2021/09/19 09:39:36;;;;;;;8.90;7.97;;;;;17.40;100483.00;;;;5068249;28;20075;-81
2021/09/19 09:42:18;;;;;;;8.45;6.57;;;;;17.40;100462.00;;;;5067915;28;20452;-78
2021/09/19 09:44:54;;;;;;;9.32;7.43;;;;;17.40;100472.00;;;;5067917;28;20113;-78
2021/09/19 09:47:31;;;;;;;23.58;12.25;;;;;17.40;100477.00;;;;5068582;28;20049;-81
2021/09/19 09:50:05;;;;;;;8.05;6.72;;;;;17.40;100486.00;;;;5068337;28;20040;-80
2021/09/19 09:52:37;;;;;;;12.43;4.63;;;;;17.40;100469.00;;;;5067701;28;20047;-78
2021/09/19 09:55:13;;;;;;;5.22;4.60;;;;;17.40;100489.00;;;;5067835;28;20056;-76
2021/09/19 09:58:11;;;;;;;12.82;7.28;;;;;17.50;100498.00;;;;5067706;28;20106;-78
2021/09/19 10:00:41;;;;;;;11.40;7.70;;;;;17.50;100483.00;;;;5067404;28;20048;-75
2021/09/19 10:03:11;;;;;;;7.70;7.03;;;;;17.50;100492.00;;;;5068162;28;20375;-81
2021/09/19 10:05:41;;;;;;;8.60;5.85;;;;;17.50;100477.00;;;;5068254;28;20094;-79
2021/09/19 10:08:12;;;;;;;5.40;3.17;;;;;17.50;100479.00;;;;5068059;28;20465;-78
2021/09/19 10:10:45;;;;;;;12.70;7.47;;;;;17.50;100472.00;;;;5067748;28;20503;-77
2021/09/19 10:13:18;;;;;;;5.10;4.30;;;;;17.60;100480.00;;;;5067567;28;20040;-79
2021/09/19 10:15:48;;;;;;;2.67;2.03;;;;;17.60;100475.00;;;;5067628;28;20040;-78
2021/09/19 10:18:18;;;;;;;11.52;3.47;;;;;17.60;100470.00;;;;5066296;28;20047;-79
2021/09/19 10:20:50;;;;;;;4.97;3.60;;;;;17.70;100491.00;;;;5067211;28;20082;-77
2021/09/19 10:23:27;;;;;;;4.50;4.03;;;;;17.70;100494.00;;;;5066922;28;20049;-81
2021/09/19 10:26:00;;;;;;;8.25;6.35;;;;;17.80;100478.00;;;;5066344;28;20044;-77
2021/09/19 10:28:38;;;;;;;9.18;4.60;;;;;17.80;100475.00;;;;5067096;28;20051;-77
2021/09/19 10:31:09;;;;;;;3.70;2.42;;;;;17.90;100472.00;;;;5065520;28;20044;-77
2021/09/19 10:33:56;;;;;;;3.47;2.47;;;;;18.10;100476.00;;;;5067270;28;20550;-77
2021/09/19 10:36:55;;;;;;;5.45;2.55;;;;;18.10;100474.00;;;;5066558;28;20047;-77
2021/09/19 10:39:41;;;;;;;2.35;2.15;;;;;18.20;100486.00;;;;5066938;28;20060;-79
2021/09/19 10:42:15;;;;;;;4.95;4.32;;;;;18.20;100487.00;;;;5066899;28;20052;-79
2021/09/19 10:44:45;;;;;;;8.35;5.65;;;;;18.20;100494.00;;;;5066477;28;20049;-79
2021/09/19 10:47:29;;;;;;;5.85;3.78;;;;;18.30;100489.00;;;;5065457;28;20502;-77
2021/09/19 10:50:12;;;;;;;8.63;5.35;;;;;18.30;100484.00;;;;5066664;28;20042;-80
2021/09/19 10:52:43;;;;;;;8.93;7.20;;;;;18.30;100484.00;;;;5066726;28;20392;-80
2021/09/19 10:55:20;;;;;;;9.85;6.40;;;;;18.30;100487.00;;;;5066966;28;20575;-78
2021/09/19 10:57:57;;;;;;;48.83;44.50;;;;;18.30;100488.00;;;;5066939;28;20098;-79
2021/09/19 11:00:32;;;;;;;6.78;5.95;;;;;18.30;100499.00;;;;5066591;28;20075;-77
2021/09/19 11:03:28;;;;;;;4.50;4.10;;;;;18.30;100494.00;;;;5066854;28;20052;-77
2021/09/19 11:05:58;;;;;;;10.05;9.15;;;;;18.40;100486.00;;;;5066926;28;20047;-77
2021/09/19 11:08:37;;;;;;;11.30;8.52;;;;;18.40;100477.00;;;;5066683;28;20506;-77
2021/09/19 11:11:10;;;;;;;140.05;125.20;;;;;18.50;100505.00;;;;5066383;28;20094;-79
2021/09/19 11:13:47;;;;;;;12.63;10.52;;;;;18.50;100508.00;;;;5066474;28;20042;-78
2021/09/19 11:16:24;;;;;;;7.65;6.07;;;;;18.60;100513.00;;;;5066673;28;20119;-77
2021/09/19 11:18:56;;;;;;;43.38;25.10;;;;;18.70;100503.00;;;;5067351;28;20048;-79
2021/09/19 11:21:26;;;;;;;16.75;11.30;;;;;18.70;100507.00;;;;5066320;28;20120;-79
2021/09/19 11:24:03;;;;;;;18.92;12.52;;;;;18.70;100509.00;;;;5066637;28;20044;-80
2021/09/19 11:26:45;;;;;;;23.70;12.40;;;;;18.70;100514.00;;;;5048771;28;20056;-79
2021/09/19 11:29:24;;;;;;;15.95;11.10;;;;;18.70;100498.00;;;;5066254;28;20112;-78
2021/09/19 11:31:57;;;;;;;18.52;8.68;;;;;18.70;100527.00;;;;5066462;28;20059;-78
2021/09/19 11:34:27;;;;;;;14.80;11.65;;;;;18.70;100521.00;;;;5066364;28;20123;-78
2021/09/19 11:36:59;;;;;;;13.18;10.10;;;;;18.80;100537.00;;;;5065897;28;20052;-77
2021/09/19 11:39:34;;;;;;;14.05;9.52;;;;;18.70;100532.00;;;;5066159;28;20072;-77
2021/09/19 11:42:10;;;;;;;10.73;8.25;;;;;18.60;100534.00;;;;5066411;28;20341;-79
2021/09/19 11:44:50;;;;;;;11.52;8.23;;;;;18.60;100530.00;;;;5070036;28;20040;-78
2021/09/19 11:47:21;;;;;;;10.23;7.38;;;;;18.60;100527.00;;;;5070313;28;20123;-74
2021/09/19 11:49:57;;;;;;;11.77;7.88;;;;;18.50;100524.00;;;;5070796;28;20458;-75
2021/09/19 11:52:26;;;;;;;15.07;8.00;;;;;18.50;100524.00;;;;5070267;28;20044;-77
2021/09/19 11:54:56;;;;;;;10.07;6.97;;;;;18.50;100521.00;;;;5069429;28;20086;-79
2021/09/19 11:57:25;;;;;;;9.98;6.20;;;;;18.60;100525.00;;;;5069426;28;20457;-78
2021/09/19 11:59:55;;;;;;;14.95;9.00;;;;;18.60;100526.00;;;;5070782;28;20044;-80
2021/09/19 12:02:30;;;;;;;9.38;6.53;;;;;18.60;100540.00;;;;5070034;28;20121;-78
2021/09/19 12:05:01;;;;;;;10.10;6.88;;;;;18.70;100538.00;;;;5070563;28;20115;-79
2021/09/19 12:07:31;;;;;;;9.52;6.18;;;;;18.60;100538.00;;;;5067996;28;20517;-79
2021/09/19 12:10:03;;;;;;;94.60;72.13;;;;;18.70;100521.00;;;;5068653;28;20045;-78
2021/09/19 12:12:33;;;;;;;13.75;10.63;;;;;18.80;100528.00;;;;5068421;28;20048;-80
2021/09/19 12:15:03;;;;;;;13.60;10.00;;;;;18.90;100521.00;;;;5069417;28;20064;-77
2021/09/19 12:17:35;;;;;;;12.52;10.57;;;;;19.10;100524.00;;;;5069793;28;20056;-78
2021/09/19 12:20:12;;;;;;;39.15;29.77;;;;;19.20;100523.00;;;;5069609;28;20537;-77